createdAt,value
2017-08-27T00:01:39.943Z,51.50
2017-08-27T00:04:07.427Z,54.33
2017-08-27T00:06:34.891Z,55.70
2017-08-27T00:09:02.483Z,54.70
2017-08-27T00:11:29.951Z,61.40
2017-08-27T00:13:57.431Z,60.33
2017-08-27T00:16:24.892Z,57.93
2017-08-27T00:18:52.364Z,52.00
2017-08-27T00:21:19.867Z,52.97
2017-08-27T00:23:47.346Z,59.23
2017-08-27T00:26:14.807Z,54.03
2017-08-27T00:28:42.268Z,69.57
2017-08-27T00:31:09.759Z,64.67
2017-08-27T00:33:37.218Z,69.17
2017-08-27T00:36:04.696Z,72.30
2017-08-27T00:38:32.170Z,71.87
2017-08-27T00:40:59.647Z,74.43
2017-08-27T00:43:27.106Z,77.47
2017-08-27T00:45:54.595Z,75.47
2017-08-27T00:48:22.088Z,70.47
2017-08-27T00:50:49.554Z,73.07
2017-08-27T00:53:17.030Z,76.60
2017-08-27T00:55:44.499Z,80.13
2017-08-27T00:58:11.971Z,85.70
2017-08-27T01:00:39.437Z,87.30
2017-08-27T01:03:07.674Z,96.40
2017-08-27T01:05:35.135Z,91.13
2017-08-27T01:08:02.643Z,91.63
2017-08-27T01:10:30.115Z,94.50
2017-08-27T01:12:57.585Z,89.20
2017-08-27T01:15:25.063Z,103.43
2017-08-27T01:17:52.527Z,102.00
2017-08-27T01:20:20.002Z,96.20
2017-08-27T01:22:47.466Z,107.53
2017-08-27T01:25:14.935Z,102.53
2017-08-27T01:27:42.422Z,100.90
2017-08-27T01:30:09.895Z,113.93
2017-08-27T01:32:37.362Z,101.27
2017-08-27T01:35:04.828Z,98.87
2017-08-27T01:37:32.286Z,112.63
2017-08-27T01:39:59.776Z,101.80
2017-08-27T01:42:27.249Z,118.53
2017-08-27T01:44:54.722Z,103.63
2017-08-27T01:47:22.194Z,113.00
2017-08-27T01:49:49.655Z,116.97
2017-08-27T01:52:17.135Z,120.83
2017-08-27T01:54:44.636Z,128.73
2017-08-27T01:57:12.122Z,126.97
2017-08-27T01:59:39.586Z,128.83
2017-08-27T02:02:07.064Z,129.27
2017-08-27T02:04:34.539Z,130.23
2017-08-27T02:07:02.003Z,143.70
2017-08-27T02:09:29.482Z,134.90
2017-08-27T02:11:56.949Z,136.60
2017-08-27T02:14:24.427Z,139.97
2017-08-27T02:16:51.891Z,134.53
2017-08-27T02:19:19.354Z,130.27
2017-08-27T02:21:46.835Z,140.23
2017-08-27T02:24:14.302Z,135.70
2017-08-27T02:26:41.783Z,145.73
2017-08-27T02:29:09.246Z,136.60
2017-08-27T02:31:36.731Z,131.40
2017-08-27T02:34:04.203Z,128.47
2017-08-27T02:36:31.695Z,134.33
2017-08-27T02:38:59.170Z,120.73
2017-08-27T02:41:26.632Z,137.97
2017-08-27T02:43:54.094Z,137.80
2017-08-27T02:46:21.595Z,129.13
2017-08-27T02:48:49.059Z,142.70
2017-08-27T02:51:16.540Z,140.03
2017-08-27T02:53:44.007Z,125.93
2017-08-27T02:56:11.478Z,132.63
2017-08-27T02:58:38.959Z,118.20
2017-08-27T03:01:06.422Z,133.27
2017-08-27T03:03:33.918Z,132.20
2017-08-27T03:06:01.373Z,140.70
2017-08-27T03:08:28.933Z,142.40
2017-08-27T03:10:56.400Z,139.00
2017-08-27T03:13:23.880Z,142.43
2017-08-27T03:15:51.355Z,137.63
2017-08-27T03:18:18.818Z,140.07
2017-08-27T03:20:46.286Z,133.17
2017-08-27T03:23:13.779Z,143.40
2017-08-27T03:25:41.250Z,149.07
2017-08-27T03:28:08.733Z,162.13
2017-08-27T03:30:36.199Z,159.73
2017-08-27T03:33:03.678Z,150.03
2017-08-27T03:35:31.167Z,155.07
2017-08-27T03:37:58.635Z,153.27
2017-08-27T03:40:26.124Z,159.80
2017-08-27T03:42:53.582Z,164.23
2017-08-27T03:45:21.071Z,160.97
2017-08-27T03:47:48.539Z,167.10
2017-08-27T03:50:16.003Z,170.10
2017-08-27T03:52:43.487Z,176.43
2017-08-27T03:55:10.978Z,175.80
2017-08-27T03:57:39.222Z,177.90
2017-08-27T04:00:06.703Z,181.17
2017-08-27T04:02:34.183Z,174.37
2017-08-27T04:05:01.659Z,174.17
2017-08-27T04:07:29.138Z,179.43
2017-08-27T04:09:56.615Z,179.90
2017-08-27T04:12:24.092Z,183.30
2017-08-27T04:14:51.583Z,178.87
2017-08-27T04:17:19.047Z,175.57
2017-08-27T04:19:46.531Z,182.80
2017-08-27T04:22:14.017Z,194.20
2017-08-27T04:24:41.611Z,205.47
2017-08-27T04:27:09.169Z,198.23
2017-08-27T04:29:36.643Z,203.90
2017-08-27T04:32:04.123Z,207.03
2017-08-27T04:34:31.594Z,188.63
2017-08-27T04:36:59.062Z,199.80
2017-08-27T04:39:26.559Z,185.40
2017-08-27T04:41:54.039Z,191.97
2017-08-27T04:44:21.508Z,192.33
2017-08-27T04:46:48.987Z,192.47
2017-08-27T04:49:16.454Z,173.33
2017-08-27T04:51:43.939Z,166.53
2017-08-27T04:54:11.407Z,172.77
2017-08-27T04:56:38.882Z,166.37
2017-08-27T04:59:06.351Z,179.57
2017-08-27T05:01:33.851Z,161.30
2017-08-27T05:04:01.322Z,153.77
2017-08-27T05:06:28.814Z,165.27
2017-08-27T05:08:56.279Z,153.73
2017-08-27T05:11:23.743Z,153.53
2017-08-27T05:13:51.234Z,160.47
2017-08-27T05:16:18.703Z,145.57
2017-08-27T05:18:46.166Z,143.00
2017-08-27T05:21:13.650Z,153.90
2017-08-27T05:23:41.139Z,151.27
2017-08-27T05:26:08.733Z,147.70
2017-08-27T05:28:36.218Z,145.57
2017-08-27T05:31:03.693Z,141.73
2017-08-27T05:33:31.172Z,140.00
2017-08-27T05:35:58.635Z,122.23
2017-08-27T05:38:26.120Z,111.67
2017-08-27T05:40:53.598Z,116.10
2017-08-27T05:43:21.064Z,114.23
2017-08-27T05:45:48.525Z,90.43
2017-08-27T05:48:16.004Z,90.67
2017-08-27T05:50:43.471Z,108.23
2017-08-27T05:53:11.058Z,110.50
2017-08-27T05:55:38.616Z,93.57
2017-08-27T05:58:06.094Z,89.00
2017-08-27T06:00:33.555Z,92.00
2017-08-27T06:03:01.014Z,88.93
2017-08-27T06:05:28.493Z,91.47
2017-08-27T06:07:55.949Z,97.37
2017-08-27T06:10:23.420Z,84.80
2017-08-27T06:12:50.887Z,83.63
2017-08-27T06:15:18.364Z,82.63
2017-08-27T06:17:45.853Z,79.73
2017-08-27T06:20:13.384Z,80.17
2017-08-27T06:22:40.851Z,77.13
2017-08-27T06:25:08.331Z,78.13
2017-08-27T06:27:35.792Z,78.37
2017-08-27T06:30:03.270Z,77.07
2017-08-27T06:32:30.766Z,72.10
2017-08-27T06:34:58.229Z,73.37
2017-08-27T06:37:25.688Z,74.27
2017-08-27T06:39:53.170Z,70.87
2017-08-27T06:42:20.626Z,73.30
2017-08-27T06:44:48.087Z,64.50
2017-08-27T06:47:15.566Z,69.43
2017-08-27T06:49:43.049Z,66.77
2017-08-27T06:52:10.520Z,67.13
2017-08-27T06:54:38.002Z,68.03
2017-08-27T06:57:05.464Z,67.70
2017-08-27T06:59:33.874Z,64.93
2017-08-27T07:02:02.119Z,67.53
2017-08-27T07:04:29.583Z,64.13
2017-08-27T07:06:57.070Z,61.70
2017-08-27T07:09:24.660Z,57.23
2017-08-27T07:11:52.217Z,65.63
2017-08-27T07:14:19.687Z,60.37
2017-08-27T07:16:47.151Z,59.93
2017-08-27T07:19:14.634Z,55.37
2017-08-27T07:21:42.103Z,55.77
2017-08-27T07:24:09.562Z,60.67
2017-08-27T07:26:37.050Z,49.50
2017-08-27T07:29:04.512Z,52.43
2017-08-27T07:31:31.987Z,52.40
2017-08-27T07:33:59.446Z,50.10
2017-08-27T07:36:26.930Z,46.67
2017-08-27T07:38:54.402Z,52.33
2017-08-27T07:41:21.903Z,51.60
2017-08-27T07:43:50.101Z,47.10
2017-08-27T07:46:17.627Z,50.30
2017-08-27T07:48:45.090Z,44.90
2017-08-27T07:51:12.570Z,42.13
2017-08-27T07:53:40.038Z,46.33
2017-08-27T07:56:07.503Z,49.83
2017-08-27T07:58:34.979Z,42.57
2017-08-27T08:01:02.468Z,40.60
2017-08-27T08:03:29.955Z,40.17
2017-08-27T08:05:57.424Z,40.33
2017-08-27T08:08:24.901Z,41.30
2017-08-27T08:10:52.365Z,43.13
2017-08-27T08:13:19.835Z,41.83
2017-08-27T08:15:47.311Z,44.50
2017-08-27T08:18:14.790Z,44.23
2017-08-27T08:20:42.284Z,40.80
2017-08-27T08:23:09.742Z,34.50
2017-08-27T08:25:37.233Z,43.10
2017-08-27T08:28:04.708Z,39.83
2017-08-27T08:30:32.173Z,35.20
2017-08-27T08:32:59.658Z,32.33
2017-08-27T08:35:27.139Z,26.30
2017-08-27T08:37:54.618Z,28.83
2017-08-27T08:40:22.087Z,22.33
2017-08-27T08:42:49.553Z,33.17
2017-08-27T08:45:17.028Z,25.53
2017-08-27T08:47:44.502Z,24.33
2017-08-27T08:50:11.967Z,23.50
2017-08-27T08:52:40.214Z,28.70
2017-08-27T08:55:07.694Z,31.30
2017-08-27T08:57:35.173Z,27.27
2017-08-27T09:00:02.658Z,22.70
2017-08-27T09:02:30.124Z,23.53
2017-08-27T09:04:57.603Z,21.03
2017-08-27T09:07:25.065Z,18.90
2017-08-27T09:09:52.529Z,17.67
2017-08-27T09:12:19.999Z,20.10
2017-08-27T09:14:47.464Z,15.53
2017-08-27T09:17:14.951Z,18.50
2017-08-27T09:19:42.422Z,18.70
2017-08-27T09:22:09.899Z,18.30
2017-08-27T09:24:37.358Z,13.50
2017-08-27T09:27:04.868Z,29.13
2017-08-27T09:29:32.425Z,17.03
2017-08-27T09:31:59.888Z,15.57
2017-08-27T09:34:27.375Z,20.23
2017-08-27T09:36:54.847Z,15.03
2017-08-27T09:39:22.327Z,15.10
2017-08-27T09:41:49.793Z,17.57
2017-08-27T09:44:17.276Z,20.00
2017-08-27T09:46:44.757Z,15.40
2017-08-27T09:49:12.219Z,15.70
2017-08-27T09:51:39.686Z,13.73
2017-08-27T09:54:07.148Z,13.97
2017-08-27T09:56:34.625Z,16.30
2017-08-27T09:59:02.106Z,12.17
2017-08-27T10:01:29.567Z,9.77
2017-08-27T10:03:57.043Z,13.83
2017-08-27T10:06:24.499Z,10.63
2017-08-27T10:08:51.999Z,15.10
2017-08-27T10:11:20.215Z,16.50
2017-08-27T10:13:47.687Z,11.33
2017-08-27T10:16:15.150Z,13.50
2017-08-27T10:18:42.619Z,14.33
2017-08-27T10:21:10.123Z,11.87
2017-08-27T10:23:37.587Z,11.47
2017-08-27T10:26:05.053Z,9.00
2017-08-27T10:28:32.519Z,9.10
2017-08-27T10:30:59.984Z,9.87
2017-08-27T10:33:27.453Z,12.97
2017-08-27T10:35:54.920Z,9.37
2017-08-27T10:38:22.383Z,8.93
2017-08-27T10:40:49.831Z,8.33
2017-08-27T10:43:17.303Z,7.93
2017-08-27T10:45:44.770Z,12.00
2017-08-27T10:48:13.010Z,8.47
2017-08-27T10:50:40.483Z,10.43
2017-08-27T10:53:07.960Z,7.87
2017-08-27T10:55:35.419Z,7.83
2017-08-27T10:58:02.902Z,7.17
2017-08-27T11:00:30.354Z,7.90
2017-08-27T11:02:57.831Z,6.50
2017-08-27T11:05:25.331Z,11.23
2017-08-27T11:07:52.753Z,9.40
2017-08-27T11:10:20.228Z,10.57
2017-08-27T11:12:47.691Z,10.23
2017-08-27T11:15:15.158Z,8.33
2017-08-27T11:17:42.628Z,6.43
2017-08-27T11:20:10.080Z,8.50
2017-08-27T11:22:37.551Z,5.63
2017-08-27T11:25:05.035Z,6.30
2017-08-27T11:27:32.503Z,8.00
2017-08-27T11:29:59.959Z,7.17
2017-08-27T11:32:27.451Z,4.77
2017-08-27T11:34:54.918Z,5.00
2017-08-27T11:37:22.386Z,6.60
2017-08-27T11:39:49.869Z,4.83
2017-08-27T11:42:17.327Z,5.70
2017-08-27T11:44:44.794Z,6.90
2017-08-27T11:47:12.265Z,6.67
2017-08-27T11:49:39.728Z,7.10
2017-08-27T11:52:07.187Z,8.27
2017-08-27T11:54:34.668Z,7.27
2017-08-27T11:57:02.908Z,5.80
2017-08-27T11:59:30.364Z,6.73
2017-08-27T12:01:57.839Z,4.30
2017-08-27T12:04:25.300Z,6.50
2017-08-27T12:06:52.797Z,8.00
2017-08-27T12:09:20.247Z,9.63
2017-08-27T12:11:47.734Z,4.30
2017-08-27T12:14:15.187Z,7.60
2017-08-27T12:16:42.695Z,6.10
2017-08-27T12:19:10.147Z,8.17
2017-08-27T12:21:37.607Z,6.60
2017-08-27T12:24:05.200Z,7.30
2017-08-27T12:26:32.652Z,4.10
2017-08-27T12:29:00.135Z,5.87
2017-08-27T12:31:27.587Z,4.30
2017-08-27T12:33:55.052Z,4.47
2017-08-27T12:36:22.523Z,4.47
2017-08-27T12:38:49.999Z,7.90
2017-08-27T12:41:18.263Z,5.10
2017-08-27T12:43:45.743Z,7.13
2017-08-27T12:46:13.221Z,7.27
2017-08-27T12:48:40.688Z,7.97
2017-08-27T12:51:08.178Z,5.10
2017-08-27T12:53:35.655Z,5.13
2017-08-27T12:56:03.119Z,6.50
2017-08-27T12:58:30.593Z,3.50
2017-08-27T13:00:58.076Z,8.83
2017-08-27T13:03:25.540Z,8.57
2017-08-27T13:05:53.009Z,6.30
2017-08-27T13:08:20.487Z,7.30
2017-08-27T13:10:47.949Z,7.00
2017-08-27T13:13:15.419Z,5.00
2017-08-27T13:15:43.654Z,4.90
2017-08-27T13:18:11.175Z,5.63
2017-08-27T13:20:38.642Z,5.63
2017-08-27T13:23:06.111Z,3.97
2017-08-27T13:25:33.621Z,4.70
2017-08-27T13:28:01.103Z,4.00
2017-08-27T13:30:28.558Z,3.77
2017-08-27T13:32:56.044Z,5.20
2017-08-27T13:35:23.513Z,6.50
2017-08-27T13:37:50.981Z,7.37
2017-08-27T13:40:18.434Z,4.70
2017-08-27T13:42:45.912Z,4.20
2017-08-27T13:45:14.132Z,6.43
2017-08-27T13:47:41.611Z,4.13
2017-08-27T13:50:09.073Z,3.60
2017-08-27T13:52:36.547Z,2.90
2017-08-27T13:55:04.763Z,4.70
2017-08-27T13:57:32.235Z,7.50
2017-08-27T13:59:59.701Z,6.67
2017-08-27T14:02:27.170Z,4.30
2017-08-27T14:04:54.639Z,4.93
2017-08-27T14:07:22.111Z,3.10
2017-08-27T14:09:49.571Z,3.23
2017-08-27T14:12:17.055Z,8.73
2017-08-27T14:14:44.523Z,4.80
2017-08-27T14:17:11.974Z,3.93
2017-08-27T14:19:39.446Z,6.00
2017-08-27T14:22:06.903Z,4.00
2017-08-27T14:24:34.388Z,8.33
2017-08-27T14:27:01.859Z,10.67
2017-08-27T14:29:29.339Z,6.20
2017-08-27T14:31:56.791Z,4.60
2017-08-27T14:34:24.283Z,4.27
2017-08-27T14:36:51.735Z,6.60
2017-08-27T14:39:19.208Z,3.93
2017-08-27T14:41:46.666Z,6.43
2017-08-27T14:44:14.145Z,3.90
2017-08-27T14:46:41.602Z,4.53
2017-08-27T14:49:09.056Z,4.03
2017-08-27T14:51:36.531Z,4.13
2017-08-27T14:54:04.763Z,6.03
2017-08-27T14:56:32.226Z,4.23
2017-08-27T14:58:59.686Z,4.47
2017-08-27T15:01:27.151Z,4.40
2017-08-27T15:03:54.615Z,5.23
2017-08-27T15:06:22.857Z,6.63
2017-08-27T15:08:50.328Z,4.00
2017-08-27T15:11:17.816Z,3.90
2017-08-27T15:13:45.277Z,7.60
2017-08-27T15:16:12.759Z,4.13
2017-08-27T15:18:40.235Z,3.47
2017-08-27T15:21:07.699Z,5.83
2017-08-27T15:23:35.178Z,5.93
2017-08-27T15:26:02.656Z,3.20
2017-08-27T15:28:30.259Z,5.53
2017-08-27T15:30:57.728Z,4.33
2017-08-27T15:33:25.198Z,4.43
2017-08-27T15:35:52.657Z,4.20
2017-08-27T15:38:20.110Z,5.27
2017-08-27T15:40:47.585Z,6.17
2017-08-27T15:43:15.042Z,4.40
2017-08-27T15:45:42.514Z,8.70
2017-08-27T15:48:10.744Z,6.77
2017-08-27T15:50:38.204Z,7.30
2017-08-27T15:53:05.676Z,3.93
2017-08-27T15:55:33.134Z,5.17
2017-08-27T15:58:00.612Z,4.93
2017-08-27T16:00:29.046Z,5.60
2017-08-27T16:02:56.523Z,3.30
2017-08-27T16:05:23.989Z,5.73
2017-08-27T16:07:51.460Z,7.60
2017-08-27T16:10:18.945Z,7.20
2017-08-27T16:12:46.400Z,4.70
2017-08-27T16:15:13.868Z,8.03
2017-08-27T16:17:41.326Z,5.83
2017-08-27T16:20:08.804Z,4.03
2017-08-27T16:22:36.276Z,5.87
2017-08-27T16:25:03.727Z,6.27
2017-08-27T16:27:31.200Z,7.73
2017-08-27T16:29:58.659Z,6.97
2017-08-27T16:32:26.131Z,7.73
2017-08-27T16:34:53.587Z,6.37
2017-08-27T16:37:21.060Z,8.50
2017-08-27T16:39:49.497Z,3.53
2017-08-27T16:42:16.963Z,3.50
2017-08-27T16:44:44.442Z,5.10
2017-08-27T16:49:43.643Z,4.93
2017-08-27T16:52:11.151Z,4.27
2017-08-27T16:54:38.638Z,5.33
2017-08-27T16:57:06.115Z,8.57
2017-08-27T16:59:34.342Z,3.43
2017-08-27T17:02:01.822Z,4.90
2017-08-27T17:04:29.292Z,4.70
2017-08-27T17:06:56.787Z,5.60
2017-08-27T17:09:24.268Z,3.43
2017-08-27T17:11:51.743Z,4.83
2017-08-27T17:14:19.259Z,7.13
2017-08-27T17:16:46.727Z,4.93
2017-08-27T17:19:14.206Z,3.60
2017-08-27T17:21:41.659Z,8.27
2017-08-27T17:24:09.133Z,10.00
2017-08-27T17:26:36.612Z,5.10
2017-08-27T17:29:04.085Z,4.20
2017-08-27T17:31:31.537Z,4.00
2017-08-27T17:33:59.006Z,3.47
2017-08-27T17:36:26.472Z,4.57
2017-08-27T17:38:53.943Z,3.90
2017-08-27T17:41:21.416Z,3.40
2017-08-27T17:43:48.883Z,9.23
2017-08-27T17:46:16.330Z,5.57
2017-08-27T17:48:43.803Z,6.43
2017-08-27T17:51:11.267Z,8.60
2017-08-27T17:53:39.488Z,9.13
2017-08-27T17:56:06.971Z,5.83
2017-08-27T17:58:34.441Z,4.67
2017-08-27T18:01:01.907Z,5.87
2017-08-27T18:03:29.405Z,4.50
2017-08-27T18:05:56.961Z,5.10
2017-08-27T18:08:24.426Z,4.00
2017-08-27T18:10:51.927Z,4.30
2017-08-27T18:13:19.406Z,4.00
2017-08-27T18:15:46.863Z,7.73
2017-08-27T18:18:14.351Z,8.03
2017-08-27T18:20:41.803Z,5.20
2017-08-27T18:23:09.292Z,9.10
2017-08-27T18:25:36.765Z,5.20
2017-08-27T18:28:04.246Z,16.37
2017-08-27T18:30:31.733Z,5.43
2017-08-27T18:32:59.287Z,6.73
2017-08-27T18:35:26.780Z,5.90
2017-08-27T18:37:55.012Z,4.70
2017-08-27T18:40:22.462Z,4.33
2017-08-27T18:42:49.939Z,9.53
2017-08-27T18:45:17.406Z,7.47
2017-08-27T18:47:44.947Z,3.20
2017-08-27T18:50:12.447Z,4.80
2017-08-27T18:52:39.916Z,5.00
2017-08-27T18:55:07.405Z,4.70
2017-08-27T18:57:34.867Z,3.73
2017-08-27T19:00:02.333Z,10.80
2017-08-27T19:02:29.797Z,4.60
2017-08-27T19:04:57.271Z,10.00
2017-08-27T19:07:24.739Z,6.00
2017-08-27T19:09:52.211Z,7.50
2017-08-27T19:12:19.694Z,8.00
2017-08-27T19:14:47.155Z,6.17
2017-08-27T19:17:14.728Z,7.07
2017-08-27T19:19:42.997Z,4.00
2017-08-27T19:22:10.443Z,5.80
2017-08-27T19:24:37.926Z,6.10
2017-08-27T19:27:05.428Z,5.17
2017-08-27T19:29:32.902Z,4.27
2017-08-27T19:32:00.371Z,5.13
2017-08-27T19:34:27.856Z,6.33
2017-08-27T19:36:55.401Z,6.30
2017-08-27T19:39:22.857Z,14.03
2017-08-27T19:41:50.347Z,11.43
2017-08-27T19:44:17.798Z,8.27
2017-08-27T19:46:45.297Z,4.50
2017-08-27T19:49:13.539Z,8.27
2017-08-27T19:51:41.007Z,7.10
2017-08-27T19:54:08.482Z,7.53
2017-08-27T19:56:35.950Z,5.30
2017-08-27T19:59:03.427Z,10.63
2017-08-27T20:01:30.903Z,6.20
2017-08-27T20:03:58.406Z,10.77
2017-08-27T20:06:25.874Z,5.47
2017-08-27T20:08:53.329Z,4.40
2017-08-27T20:11:20.803Z,6.80
2017-08-27T20:13:48.572Z,7.10
2017-08-27T20:16:16.054Z,11.20
2017-08-27T20:18:43.516Z,10.00
2017-08-27T20:21:10.978Z,11.43
2017-08-27T20:23:38.451Z,7.03
2017-08-27T20:26:05.916Z,6.80
2017-08-27T20:28:33.388Z,5.20
2017-08-27T20:31:00.876Z,6.47
2017-08-27T20:33:28.340Z,9.80
2017-08-27T20:35:55.806Z,17.43
2017-08-27T20:38:23.280Z,6.40
2017-08-27T20:40:50.764Z,9.07
2017-08-27T20:43:18.245Z,8.10
2017-08-27T20:45:45.704Z,10.50
2017-08-27T20:48:13.191Z,5.47
2017-08-27T20:50:40.648Z,4.53
2017-08-27T20:53:08.100Z,7.40
2017-08-27T20:55:35.568Z,8.60
2017-08-27T20:58:03.024Z,4.83
2017-08-27T21:00:30.551Z,5.40
2017-08-27T21:02:58.005Z,7.47
2017-08-27T21:05:25.464Z,6.57
2017-08-27T21:07:52.939Z,8.43
2017-08-27T21:10:20.477Z,8.37
2017-08-27T21:12:47.923Z,7.03
2017-08-27T21:15:15.410Z,6.40
2017-08-27T21:17:42.863Z,7.70
2017-08-27T21:20:10.358Z,5.80
2017-08-27T21:22:37.817Z,7.50
2017-08-27T21:25:05.278Z,6.80
2017-08-27T21:27:32.747Z,7.20
2017-08-27T21:30:00.203Z,6.30
2017-08-27T21:32:27.686Z,7.30
2017-08-27T21:34:55.159Z,5.97
2017-08-27T21:37:22.627Z,8.07
2017-08-27T21:39:50.102Z,7.43
2017-08-27T21:42:17.586Z,6.00
2017-08-27T21:44:45.806Z,7.67
2017-08-27T21:47:13.275Z,5.80
2017-08-27T21:49:40.747Z,7.03
2017-08-27T21:52:08.200Z,8.87
2017-08-27T21:54:35.674Z,8.20
2017-08-27T21:57:03.131Z,6.53
2017-08-27T21:59:30.625Z,11.67
2017-08-27T22:01:58.089Z,7.07
2017-08-27T22:04:25.555Z,6.30
2017-08-27T22:06:53.015Z,7.53
2017-08-27T22:09:20.487Z,8.23
2017-08-27T22:11:47.947Z,6.43
2017-08-27T22:14:15.415Z,6.37
2017-08-27T22:16:42.882Z,7.00
2017-08-27T22:19:10.346Z,6.67
2017-08-27T22:21:37.833Z,10.27
2017-08-27T22:24:05.297Z,8.17
2017-08-27T22:26:32.755Z,7.30
2017-08-27T22:29:00.214Z,6.80
2017-08-27T22:31:27.700Z,10.70
2017-08-27T22:33:55.183Z,6.57
2017-08-27T22:36:22.642Z,6.80
2017-08-27T22:38:50.149Z,9.00
2017-08-27T22:41:17.611Z,8.90
2017-08-27T22:43:45.080Z,12.23
2017-08-27T22:46:12.543Z,6.83
2017-08-27T22:48:39.998Z,6.97
2017-08-27T22:51:07.468Z,8.93
2017-08-27T22:53:35.686Z,7.03
2017-08-27T22:56:03.164Z,8.63
2017-08-27T22:58:30.619Z,8.10
2017-08-27T23:00:58.095Z,7.23
2017-08-27T23:03:25.555Z,7.97
2017-08-27T23:05:53.010Z,8.87
2017-08-27T23:08:20.484Z,10.00
2017-08-27T23:10:47.938Z,9.00
2017-08-27T23:13:15.406Z,8.13
2017-08-27T23:15:42.880Z,8.07
2017-08-27T23:18:10.355Z,9.03
2017-08-27T23:20:37.818Z,10.83
2017-08-27T23:23:05.282Z,8.80
2017-08-27T23:25:32.820Z,8.60
2017-08-27T23:28:00.281Z,11.90
2017-08-27T23:30:27.775Z,11.60
2017-08-27T23:32:55.227Z,8.83
2017-08-27T23:35:22.687Z,10.90
2017-08-27T23:37:50.159Z,9.93
2017-08-27T23:40:17.612Z,8.50
2017-08-27T23:42:45.095Z,9.10
2017-08-27T23:45:12.572Z,13.70
2017-08-27T23:47:40.132Z,8.80
2017-08-27T23:50:07.621Z,7.70
2017-08-27T23:52:35.079Z,11.90
2017-08-27T23:55:02.530Z,7.60
2017-08-27T23:57:30.003Z,9.47
2017-08-27T23:59:57.465Z,7.67
